createdAt,value
2023-03-05T00:01:29.319Z,4.47
2023-03-05T00:03:58.091Z,4.75
2023-03-05T00:06:27.732Z,4.30
2023-03-05T00:08:56.954Z,4.10
2023-03-05T00:11:28.455Z,3.65
2023-03-05T00:13:57.307Z,3.47
2023-03-05T00:16:27.625Z,3.85
2023-03-05T00:18:56.450Z,4.07
2023-03-05T00:21:27.719Z,3.67
2023-03-05T00:23:57.134Z,4.82
2023-03-05T00:26:27.361Z,4.53
2023-03-05T00:28:56.207Z,4.05
2023-03-05T00:31:26.973Z,4.95
2023-03-05T00:33:55.996Z,4.20
2023-03-05T00:36:25.253Z,3.67
2023-03-05T00:38:53.584Z,4.30
2023-03-05T00:41:21.878Z,3.85
2023-03-05T00:43:49.695Z,4.13
2023-03-05T00:46:18.380Z,3.50
2023-03-05T00:48:47.392Z,3.65
2023-03-05T00:51:15.996Z,4.07
2023-03-05T00:53:43.883Z,3.72
2023-03-05T00:56:11.886Z,4.63
2023-03-05T00:58:39.847Z,4.50
2023-03-05T01:01:08.671Z,4.80
2023-03-05T01:03:36.737Z,5.47
2023-03-05T01:06:08.185Z,5.20
2023-03-05T01:08:36.175Z,4.95
2023-03-05T01:11:08.498Z,5.07
2023-03-05T01:13:36.426Z,5.68
2023-03-05T01:16:05.163Z,5.63
2023-03-05T01:18:33.174Z,5.47
2023-03-05T01:21:00.892Z,5.60
2023-03-05T01:23:28.287Z,5.55
2023-03-05T01:25:57.902Z,5.75
2023-03-05T01:28:26.327Z,6.15
2023-03-05T01:30:54.370Z,6.35
2023-03-05T01:33:21.705Z,5.50
2023-03-05T01:35:50.392Z,6.38
2023-03-05T01:38:19.370Z,5.03
2023-03-05T01:40:47.452Z,6.05
2023-03-05T01:43:28.281Z,5.75
2023-03-05T01:46:16.916Z,6.07
2023-03-05T01:49:16.314Z,5.55
2023-03-05T01:52:18.145Z,5.88
2023-03-05T01:55:01.942Z,5.93
2023-03-05T01:57:34.226Z,6.07
2023-03-05T02:00:07.198Z,5.97
2023-03-05T02:02:42.701Z,6.30
2023-03-05T02:05:13.750Z,6.57
2023-03-05T02:07:43.264Z,5.20
2023-03-05T02:10:22.520Z,5.15
2023-03-05T02:12:50.849Z,6.28
2023-03-05T02:15:18.608Z,6.50
2023-03-05T02:17:46.385Z,5.85
2023-03-05T02:20:17.825Z,5.85
2023-03-05T02:22:45.891Z,6.00
2023-03-05T02:25:27.755Z,6.13
2023-03-05T02:28:00.585Z,5.38
2023-03-05T02:30:29.013Z,5.80
2023-03-05T02:32:57.404Z,5.65
2023-03-05T02:35:25.480Z,5.03
2023-03-05T02:37:53.232Z,6.07
2023-03-05T02:40:20.606Z,5.47
2023-03-05T02:42:49.337Z,6.45
2023-03-05T02:45:17.582Z,6.25
2023-03-05T02:47:45.166Z,7.28
2023-03-05T02:50:12.690Z,7.55
2023-03-05T02:52:40.762Z,5.63
2023-03-05T02:55:13.413Z,5.32
2023-03-05T02:57:42.227Z,5.28
2023-03-05T03:00:10.696Z,6.13
2023-03-05T03:02:39.292Z,5.80
2023-03-05T03:05:07.629Z,6.25
2023-03-05T03:07:36.710Z,5.60
2023-03-05T03:10:05.426Z,6.05
2023-03-05T03:12:37.739Z,5.47
2023-03-05T03:15:05.908Z,6.80
2023-03-05T03:17:35.590Z,6.20
2023-03-05T03:20:04.886Z,5.85
2023-03-05T03:22:32.914Z,5.65
2023-03-05T03:25:01.384Z,6.03
2023-03-05T03:27:29.024Z,6.45
2023-03-05T03:29:56.367Z,5.90
2023-03-05T03:32:24.176Z,6.70
2023-03-05T03:34:51.721Z,6.75
2023-03-05T03:37:19.551Z,6.35
2023-03-05T03:39:46.970Z,6.05
2023-03-05T03:42:18.018Z,6.75
2023-03-05T03:44:45.444Z,6.60
2023-03-05T03:47:13.203Z,6.10
2023-03-05T03:49:40.495Z,6.40
2023-03-05T03:52:08.516Z,7.15
2023-03-05T03:54:36.094Z,6.40
2023-03-05T03:57:04.050Z,7.30
2023-03-05T03:59:31.416Z,6.10
2023-03-05T04:01:59.089Z,7.45
2023-03-05T04:04:26.882Z,7.07
2023-03-05T04:06:54.647Z,6.38
2023-03-05T04:09:22.124Z,6.55
2023-03-05T04:11:49.937Z,6.50
2023-03-05T04:14:17.324Z,7.07
2023-03-05T04:16:44.989Z,6.07
2023-03-05T04:19:12.309Z,5.65
2023-03-05T04:21:40.345Z,5.68
2023-03-05T04:24:08.455Z,6.70
2023-03-05T04:26:36.278Z,6.63
2023-03-05T04:29:03.562Z,5.57
2023-03-05T04:31:31.339Z,6.53
2023-03-05T04:33:59.886Z,6.63
2023-03-05T04:36:27.769Z,6.25
2023-03-05T04:38:55.119Z,6.03
2023-03-05T04:41:22.992Z,7.10
2023-03-05T04:43:50.376Z,5.88
2023-03-05T04:46:18.250Z,5.78
2023-03-05T04:48:45.570Z,5.25
2023-03-05T04:51:13.224Z,5.68
2023-03-05T04:53:40.662Z,5.65
2023-03-05T04:56:08.644Z,6.22
2023-03-05T04:58:36.011Z,6.35
2023-03-05T05:01:05.310Z,5.88
2023-03-05T05:03:33.244Z,5.72
2023-03-05T05:06:01.791Z,5.75
2023-03-05T05:08:29.559Z,5.57
2023-03-05T05:11:05.514Z,5.30
2023-03-05T05:13:33.568Z,6.20
2023-03-05T05:16:01.350Z,5.65
2023-03-05T05:18:28.737Z,6.05
2023-03-05T05:20:56.522Z,5.55
2023-03-05T05:23:24.302Z,5.68
2023-03-05T05:26:00.016Z,6.13
2023-03-05T05:28:27.904Z,6.78
2023-03-05T05:30:55.855Z,5.47
2023-03-05T05:33:23.978Z,5.97
2023-03-05T05:35:51.863Z,5.57
2023-03-05T05:38:19.337Z,6.15
2023-03-05T05:40:46.969Z,5.38
2023-03-05T05:43:14.498Z,5.93
2023-03-05T05:45:42.377Z,6.70
2023-03-05T05:48:09.931Z,6.40
2023-03-05T05:50:39.574Z,6.45
2023-03-05T05:53:06.848Z,6.15
2023-03-05T05:55:34.428Z,7.35
2023-03-05T05:58:01.945Z,5.78
2023-03-05T06:00:29.618Z,6.03
2023-03-05T06:02:57.180Z,6.32
2023-03-05T06:05:25.043Z,6.05
2023-03-05T06:07:52.379Z,6.10
2023-03-05T06:10:20.385Z,6.88
2023-03-05T06:12:47.999Z,6.70
2023-03-05T06:15:15.647Z,6.20
2023-03-05T06:17:43.128Z,6.28
2023-03-05T06:20:11.775Z,5.80
2023-03-05T06:22:39.523Z,7.00
2023-03-05T06:25:08.626Z,5.50
2023-03-05T06:27:36.281Z,5.72
2023-03-05T06:30:05.564Z,5.82
2023-03-05T06:32:33.046Z,6.20
2023-03-05T06:35:00.778Z,5.93
2023-03-05T06:37:28.132Z,5.50
2023-03-05T06:39:55.716Z,5.97
2023-03-05T06:42:23.028Z,6.00
2023-03-05T06:44:50.590Z,5.43
2023-03-05T06:47:17.957Z,5.30
2023-03-05T06:49:45.442Z,5.93
2023-03-05T06:52:13.097Z,4.88
2023-03-05T06:54:40.819Z,5.20
2023-03-05T06:57:10.446Z,6.05
2023-03-05T06:59:38.326Z,5.70
2023-03-05T07:02:05.908Z,5.43
2023-03-05T07:04:33.701Z,5.25
2023-03-05T07:07:01.360Z,4.63
2023-03-05T07:09:29.255Z,4.85
2023-03-05T07:11:56.917Z,5.30
2023-03-05T07:14:24.447Z,4.85
2023-03-05T07:16:51.796Z,5.82
2023-03-05T07:19:19.613Z,5.32
2023-03-05T07:21:47.618Z,5.22
2023-03-05T07:24:15.294Z,5.63
2023-03-05T07:26:42.954Z,5.65
2023-03-05T07:29:10.878Z,5.85
2023-03-05T07:31:38.346Z,5.20
2023-03-05T07:34:06.680Z,5.25
2023-03-05T07:36:35.256Z,5.45
2023-03-05T07:39:05.105Z,5.80
2023-03-05T07:41:33.492Z,5.15
2023-03-05T07:44:01.702Z,4.90
2023-03-05T07:46:32.201Z,5.38
2023-03-05T07:49:00.708Z,6.25
2023-03-05T07:51:28.853Z,5.22
2023-03-05T07:53:59.063Z,5.80
2023-03-05T07:56:37.303Z,5.13
2023-03-05T07:59:07.259Z,5.80
2023-03-05T08:01:35.694Z,5.68
2023-03-05T08:04:04.596Z,6.32
2023-03-05T08:06:31.970Z,5.93
2023-03-05T08:09:00.595Z,5.05
2023-03-05T08:11:28.842Z,5.90
2023-03-05T08:13:59.824Z,4.90
2023-03-05T08:16:28.289Z,5.45
2023-03-05T08:18:57.635Z,5.38
2023-03-05T08:21:29.607Z,5.95
2023-03-05T08:23:57.947Z,5.85
2023-03-05T08:26:27.343Z,5.72
2023-03-05T08:28:55.631Z,6.38
2023-03-05T08:31:24.772Z,5.72
2023-03-05T08:33:55.294Z,5.45
2023-03-05T08:36:23.258Z,5.68
2023-03-05T08:38:51.561Z,4.90
2023-03-05T08:41:19.811Z,5.03
2023-03-05T08:43:48.598Z,5.55
2023-03-05T08:46:17.212Z,5.28
2023-03-05T08:48:45.760Z,5.20
2023-03-05T08:51:15.380Z,4.85
2023-03-05T08:53:45.312Z,6.95
2023-03-05T08:56:13.762Z,4.65
2023-03-05T08:58:41.434Z,5.78
2023-03-05T09:01:08.728Z,6.20
2023-03-05T09:03:36.896Z,6.72
2023-03-05T09:06:07.762Z,6.47
2023-03-05T09:08:36.408Z,5.70
2023-03-05T09:11:05.501Z,6.50
2023-03-05T09:13:33.756Z,6.78
2023-03-05T09:16:04.136Z,5.53
2023-03-05T09:18:32.451Z,6.50
2023-03-05T09:21:05.139Z,6.53
2023-03-05T09:23:33.153Z,6.45
2023-03-05T09:26:00.521Z,6.20
2023-03-05T09:28:28.425Z,6.45
2023-03-05T09:30:55.615Z,6.80
2023-03-05T09:33:23.668Z,6.70
2023-03-05T09:35:51.596Z,7.15
2023-03-05T09:38:19.638Z,7.82
2023-03-05T09:41:10.371Z,6.47
2023-03-05T09:44:03.949Z,6.63
2023-03-05T09:47:04.096Z,7.43
2023-03-05T09:49:57.553Z,7.10
2023-03-05T09:52:50.638Z,7.65
2023-03-05T09:57:59.496Z,7.03
2023-03-05T10:00:32.948Z,7.05
2023-03-05T10:03:05.642Z,6.75
2023-03-05T10:08:12.464Z,6.20
2023-03-05T10:10:52.677Z,6.45
2023-03-05T10:13:29.433Z,6.10
2023-03-05T10:16:06.841Z,6.15
2023-03-05T10:18:55.914Z,6.28
2023-03-05T10:21:45.463Z,5.68
2023-03-05T10:24:15.621Z,5.53
2023-03-05T10:26:59.984Z,5.90
2023-03-05T10:29:39.857Z,5.78
2023-03-05T10:32:35.876Z,6.45
2023-03-05T10:35:34.784Z,5.43
2023-03-05T10:38:16.250Z,5.47
2023-03-05T10:40:48.391Z,11.38
2023-03-05T10:43:51.748Z,8.68
2023-03-05T10:46:21.794Z,10.48
2023-03-05T10:48:53.873Z,8.23
2023-03-05T10:51:42.172Z,7.68
2023-03-05T10:54:19.519Z,7.13
2023-03-05T10:56:46.736Z,6.63
2023-03-05T10:59:14.328Z,7.75
2023-03-05T11:01:41.988Z,8.52
2023-03-05T11:04:30.281Z,7.75
2023-03-05T11:06:58.051Z,12.85
2023-03-05T11:09:29.484Z,8.48
2023-03-05T11:12:19.769Z,7.63
2023-03-05T11:15:07.924Z,7.40
2023-03-05T11:17:49.194Z,9.43
2023-03-05T11:20:36.006Z,11.57
2023-03-05T11:23:24.891Z,9.70
2023-03-05T11:26:15.598Z,6.88
2023-03-05T11:28:52.131Z,5.80
2023-03-05T11:31:21.973Z,5.28
2023-03-05T11:34:12.158Z,3.95
2023-03-05T11:37:03.821Z,3.78
2023-03-05T11:39:34.447Z,4.03
2023-03-05T11:42:06.913Z,3.33
2023-03-05T11:44:50.872Z,3.75
2023-03-05T11:47:36.175Z,3.65
2023-03-05T11:50:23.805Z,4.57
2023-03-05T11:53:09.776Z,6.13
2023-03-05T11:56:00.670Z,4.30
2023-03-05T11:58:49.587Z,4.05
2023-03-05T12:01:20.879Z,4.72
2023-03-05T12:03:50.519Z,3.53
2023-03-05T12:06:27.190Z,5.03
2023-03-05T12:08:58.717Z,4.32
2023-03-05T12:11:31.231Z,5.25
2023-03-05T12:14:24.825Z,4.22
2023-03-05T12:20:00.234Z,6.85
2023-03-05T12:22:35.202Z,5.28
2023-03-05T12:25:29.412Z,4.80
2023-03-05T12:27:57.457Z,5.45
2023-03-05T12:30:48.865Z,6.63
2023-03-05T12:33:35.782Z,7.15
2023-03-05T12:36:22.799Z,9.30
2023-03-05T12:38:57.114Z,9.25
2023-03-05T12:41:27.431Z,7.35
2023-03-05T12:44:07.417Z,7.13
2023-03-05T12:46:42.739Z,6.90
2023-03-05T12:49:27.334Z,7.65
2023-03-05T12:52:00.165Z,7.80
2023-03-05T12:54:35.716Z,9.43
2023-03-05T12:57:07.176Z,10.52
2023-03-05T12:59:42.345Z,10.20
2023-03-05T13:02:36.718Z,9.77
2023-03-05T13:05:28.288Z,11.77
2023-03-05T13:08:21.832Z,9.77
2023-03-05T13:10:58.111Z,10.10
2023-03-05T13:13:27.588Z,8.88
2023-03-05T13:15:55.182Z,9.57
2023-03-05T13:18:31.143Z,8.02
2023-03-05T13:21:04.861Z,7.40
2023-03-05T13:23:34.218Z,6.88
2023-03-05T13:26:15.619Z,7.45
2023-03-05T13:28:45.208Z,7.18
2023-03-05T13:31:21.422Z,11.07
2023-03-05T13:33:54.847Z,7.25
2023-03-05T13:38:51.125Z,10.20
2023-03-05T13:41:20.377Z,6.97
2023-03-05T13:43:58.285Z,6.18
2023-03-05T13:46:32.265Z,7.95
2023-03-05T13:49:23.113Z,10.18
2023-03-05T13:51:53.968Z,6.82
2023-03-05T13:54:23.375Z,5.40
2023-03-05T13:56:56.970Z,6.07
2023-03-05T13:59:30.955Z,5.43
2023-03-05T14:02:00.185Z,7.63
2023-03-05T14:04:39.117Z,8.25
2023-03-05T14:07:08.793Z,7.85
2023-03-05T14:09:39.452Z,8.05
2023-03-05T14:12:21.637Z,6.85
2023-03-05T14:14:49.311Z,8.77
2023-03-05T14:17:42.537Z,7.38
2023-03-05T14:20:13.245Z,6.18
2023-03-05T14:22:43.376Z,6.32
2023-03-05T14:25:42.430Z,5.90
2023-03-05T14:28:28.344Z,5.28
2023-03-05T14:30:57.058Z,5.35
2023-03-05T14:33:32.596Z,5.72
2023-03-05T14:36:01.163Z,6.40
2023-03-05T14:38:30.895Z,6.75
2023-03-05T14:40:58.677Z,5.47
2023-03-05T14:43:26.009Z,5.75
2023-03-05T14:45:53.861Z,7.43
2023-03-05T14:48:21.195Z,7.28
2023-03-05T14:50:57.102Z,7.38
2023-03-05T14:53:27.299Z,7.07
2023-03-05T14:55:57.067Z,7.93
2023-03-05T14:58:32.588Z,8.23
2023-03-05T15:01:00.431Z,7.32
2023-03-05T15:03:28.195Z,10.07
2023-03-05T15:05:57.519Z,7.03
2023-03-05T15:08:30.638Z,7.07
2023-03-05T15:10:59.769Z,9.48
2023-03-05T15:13:27.306Z,7.70
2023-03-05T15:15:55.490Z,10.48
2023-03-05T15:18:23.919Z,8.25
2023-03-05T15:20:55.514Z,10.35
2023-03-05T15:23:23.384Z,10.50
2023-03-05T15:25:51.302Z,7.47
2023-03-05T15:28:18.901Z,9.40
2023-03-05T15:30:47.465Z,7.63
2023-03-05T15:33:16.790Z,8.35
2023-03-05T15:35:45.144Z,10.38
2023-03-05T15:38:12.492Z,9.48
2023-03-05T15:40:40.854Z,9.35
2023-03-05T15:43:10.388Z,9.43
2023-03-05T15:45:39.380Z,9.77
2023-03-05T15:48:11.174Z,9.52
2023-03-05T15:50:43.660Z,10.38
2023-03-05T15:53:16.406Z,9.95
2023-03-05T15:55:46.438Z,10.60
2023-03-05T15:58:16.172Z,10.80
2023-03-05T16:00:44.620Z,10.07
2023-03-05T16:03:12.497Z,10.90
2023-03-05T16:05:40.352Z,10.23
2023-03-05T16:08:08.750Z,10.02
2023-03-05T16:10:40.159Z,10.27
2023-03-05T16:13:13.806Z,9.77
2023-03-05T16:15:42.136Z,10.77
2023-03-05T16:18:24.863Z,11.00
2023-03-05T16:20:57.079Z,11.05
2023-03-05T16:23:24.991Z,11.27
2023-03-05T16:25:52.799Z,12.23
2023-03-05T16:28:20.212Z,11.50
2023-03-05T16:30:55.875Z,11.07
2023-03-05T16:33:23.878Z,13.05
2023-03-05T16:36:11.588Z,11.55
2023-03-05T16:38:39.012Z,12.15
2023-03-05T16:41:08.867Z,12.07
2023-03-05T16:43:37.736Z,12.32
2023-03-05T16:46:06.298Z,11.52
2023-03-05T16:48:34.360Z,11.73
2023-03-05T16:51:02.880Z,11.27
2023-03-05T16:53:30.687Z,11.45
2023-03-05T16:55:59.100Z,10.68
2023-03-05T16:58:26.437Z,10.63
2023-03-05T17:00:54.120Z,10.32
2023-03-05T17:03:22.214Z,10.05
2023-03-05T17:05:49.935Z,11.07
2023-03-05T17:08:17.390Z,12.25
2023-03-05T17:10:45.769Z,11.88
2023-03-05T17:13:13.222Z,12.02
2023-03-05T17:18:10.256Z,13.95
2023-03-05T17:20:38.106Z,12.43
2023-03-05T17:23:05.561Z,14.35
2023-03-05T17:25:33.274Z,16.38
2023-03-05T17:28:00.713Z,14.82
2023-03-05T17:30:28.561Z,14.32
2023-03-05T17:32:56.002Z,15.95
2023-03-05T17:35:24.120Z,17.33
2023-03-05T17:37:53.743Z,16.23
2023-03-05T17:40:22.872Z,19.60
2023-03-05T17:42:50.454Z,17.17
2023-03-05T17:45:18.208Z,16.13
2023-03-05T17:47:45.488Z,17.88
2023-03-05T17:50:14.431Z,16.00
2023-03-05T17:52:41.987Z,17.58
2023-03-05T17:55:11.164Z,18.90
2023-03-05T17:57:41.663Z,20.52
2023-03-05T18:00:24.945Z,19.38
2023-03-05T18:05:22.407Z,16.08
2023-03-05T18:07:50.475Z,16.35
2023-03-05T18:10:19.466Z,18.05
2023-03-05T18:12:47.098Z,17.10
2023-03-05T18:15:16.268Z,17.65
2023-03-05T18:17:44.258Z,16.40
2023-03-05T18:20:26.399Z,15.40
2023-03-05T18:22:54.330Z,15.52
2023-03-05T18:25:23.535Z,17.52
2023-03-05T18:27:50.906Z,16.23
2023-03-05T18:30:18.907Z,16.00
2023-03-05T18:32:47.793Z,16.80
2023-03-05T18:35:15.513Z,16.30
2023-03-05T18:37:42.915Z,19.05
2023-03-05T18:40:16.880Z,18.95
2023-03-05T18:42:46.288Z,18.17
2023-03-05T18:45:15.557Z,17.67
2023-03-05T18:47:43.348Z,17.20
2023-03-05T18:50:15.128Z,16.98
2023-03-05T18:52:43.075Z,18.02
2023-03-05T18:55:27.126Z,16.00
2023-03-05T18:57:55.262Z,17.50
2023-03-05T19:00:32.373Z,17.45
2023-03-05T19:03:00.302Z,17.63
2023-03-05T19:05:28.364Z,18.52
2023-03-05T19:07:56.604Z,19.42
2023-03-05T19:10:24.776Z,21.42
2023-03-05T19:13:08.163Z,20.58
2023-03-05T19:15:39.793Z,18.80
2023-03-05T19:18:07.232Z,21.25
2023-03-05T19:20:35.505Z,22.83
2023-03-05T19:23:05.763Z,20.58
2023-03-05T19:25:36.469Z,22.80
2023-03-05T19:28:04.348Z,22.70
2023-03-05T19:30:32.504Z,21.80
2023-03-05T19:33:04.012Z,20.67
2023-03-05T19:35:32.708Z,20.55
2023-03-05T19:38:03.440Z,21.48
2023-03-05T19:40:31.917Z,21.23
2023-03-05T19:43:02.583Z,20.77
2023-03-05T19:45:34.065Z,20.60
2023-03-05T19:48:01.667Z,26.15
2023-03-05T19:50:29.590Z,26.90
2023-03-05T19:52:57.573Z,30.15
2023-03-05T19:55:28.983Z,26.27
2023-03-05T19:57:57.361Z,23.73
2023-03-05T20:00:27.850Z,22.05
2023-03-05T20:02:55.273Z,22.65
2023-03-05T20:05:26.142Z,24.85
2023-03-05T20:07:54.149Z,23.10
2023-03-05T20:10:22.832Z,24.40
2023-03-05T20:12:51.442Z,22.00
2023-03-05T20:15:21.475Z,22.92
2023-03-05T20:17:49.285Z,23.70
2023-03-05T20:20:21.491Z,23.65
2023-03-05T20:22:49.506Z,22.23
2023-03-05T20:25:21.550Z,24.30
2023-03-05T20:27:52.126Z,26.60
2023-03-05T20:30:25.449Z,22.70
2023-03-05T20:32:55.341Z,24.05
2023-03-05T20:35:26.120Z,24.42
2023-03-05T20:38:17.940Z,27.00
2023-03-05T20:40:45.534Z,37.70
2023-03-05T20:43:13.042Z,28.00
2023-03-05T20:45:41.800Z,36.25
2023-03-05T20:48:12.600Z,30.67
2023-03-05T20:50:41.373Z,25.42
2023-03-05T20:53:10.768Z,26.38
2023-03-05T20:55:38.678Z,31.35
2023-03-05T20:58:06.335Z,33.92
2023-03-05T21:00:35.052Z,31.63
2023-03-05T21:03:06.471Z,30.77
2023-03-05T21:05:42.300Z,33.92
2023-03-05T21:08:10.530Z,28.65
2023-03-05T21:10:39.140Z,25.55
2023-03-05T21:13:06.597Z,27.98
2023-03-05T21:15:35.070Z,26.42
2023-03-05T21:18:09.042Z,26.52
2023-03-05T21:20:36.869Z,25.85
2023-03-05T21:23:04.247Z,26.95
2023-03-05T21:25:33.483Z,26.85
2023-03-05T21:28:07.287Z,27.52
2023-03-05T21:30:42.750Z,25.75
2023-03-05T21:33:13.946Z,27.00
2023-03-05T21:35:42.564Z,27.38
2023-03-05T21:38:10.272Z,27.48
2023-03-05T21:40:43.660Z,27.13
2023-03-05T21:43:12.431Z,27.63
2023-03-05T21:45:41.062Z,25.92
2023-03-05T21:48:09.454Z,28.35
2023-03-05T21:50:39.837Z,26.73
2023-03-05T21:53:08.087Z,28.27
2023-03-05T21:55:46.758Z,27.58
2023-03-05T21:58:14.932Z,27.23
2023-03-05T22:00:42.983Z,25.75
2023-03-05T22:03:10.476Z,27.70
2023-03-05T22:05:38.228Z,29.50
2023-03-05T22:08:05.667Z,27.02
2023-03-05T22:10:33.671Z,26.10
2023-03-05T22:13:02.396Z,26.50
2023-03-05T22:15:31.983Z,27.75
2023-03-05T22:18:00.161Z,25.73
2023-03-05T22:20:27.915Z,26.65
2023-03-05T22:22:55.460Z,24.40
2023-03-05T22:25:24.001Z,26.27
2023-03-05T22:27:51.525Z,26.55
2023-03-05T22:30:20.413Z,28.25
2023-03-05T22:32:47.667Z,25.80
2023-03-05T22:35:16.329Z,26.88
2023-03-05T22:37:44.257Z,28.90
2023-03-05T22:40:17.062Z,33.17
2023-03-05T22:42:44.852Z,37.78
2023-03-05T22:45:13.940Z,31.75
2023-03-05T22:47:41.280Z,33.63
2023-03-05T22:50:10.082Z,28.60
2023-03-05T22:52:37.514Z,29.30
2023-03-05T22:55:05.723Z,32.97
2023-03-05T22:57:33.277Z,30.73
2023-03-05T23:00:00.872Z,28.85
2023-03-05T23:02:28.306Z,28.27
2023-03-05T23:05:00.697Z,30.13
2023-03-05T23:07:30.530Z,29.70
2023-03-05T23:10:04.750Z,27.92
2023-03-05T23:12:33.911Z,28.10
2023-03-05T23:15:13.788Z,28.52
2023-03-05T23:17:41.295Z,26.85
2023-03-05T23:20:11.800Z,28.23
2023-03-05T23:22:40.505Z,27.58
2023-03-05T23:25:08.646Z,27.42
2023-03-05T23:27:35.972Z,27.95
2023-03-05T23:30:23.120Z,28.58
2023-03-05T23:32:52.784Z,28.25
2023-03-05T23:35:23.715Z,26.80
2023-03-05T23:37:52.202Z,26.75
2023-03-05T23:40:25.275Z,26.98
2023-03-05T23:42:53.228Z,27.45
2023-03-05T23:45:22.744Z,26.88
2023-03-05T23:47:51.336Z,28.83
2023-03-05T23:50:21.758Z,27.05
2023-03-05T23:52:50.265Z,30.38
2023-03-05T23:55:24.436Z,29.45
2023-03-05T23:57:52.185Z,28.45
